sensor_id;sensor_type;location;lat;lon;timestamp;P1;durP1;ratioP1;P2;durP2;ratioP2
84883;SDS011;75145;49.188;8.122;2024-01-11T00:02:30;23.67;;;10.82;;
84883;SDS011;75145;49.188;8.122;2024-01-11T00:04:55;30.23;;;12.23;;
84883;SDS011;75145;49.188;8.122;2024-01-11T00:07:20;26.20;;;11.83;;
84883;SDS011;75145;49.188;8.122;2024-01-11T00:09:46;25.05;;;10.00;;
84883;SDS011;75145;49.188;8.122;2024-01-11T00:12:11;31.23;;;12.70;;
84883;SDS011;75145;49.188;8.122;2024-01-11T00:14:37;26.08;;;11.68;;
84883;SDS011;75145;49.188;8.122;2024-01-11T00:17:02;29.30;;;11.33;;
84883;SDS011;75145;49.188;8.122;2024-01-11T00:19:27;31.42;;;13.00;;
84883;SDS011;75145;49.188;8.122;2024-01-11T00:21:53;28.98;;;12.52;;
84883;SDS011;75145;49.188;8.122;2024-01-11T00:24:18;33.08;;;12.68;;
84883;SDS011;75145;49.188;8.122;2024-01-11T00:26:44;31.10;;;12.25;;
84883;SDS011;75145;49.188;8.122;2024-01-11T00:29:09;28.38;;;12.55;;
84883;SDS011;75145;49.188;8.122;2024-01-11T00:31:35;24.60;;;12.10;;
84883;SDS011;75145;49.188;8.122;2024-01-11T00:34:00;30.02;;;11.05;;
84883;SDS011;75145;49.188;8.122;2024-01-11T00:36:26;26.48;;;11.65;;
84883;SDS011;75145;49.188;8.122;2024-01-11T00:38:53;27.05;;;12.48;;
84883;SDS011;75145;49.188;8.122;2024-01-11T00:41:18;23.25;;;10.75;;
84883;SDS011;75145;49.188;8.122;2024-01-11T00:43:44;29.03;;;11.00;;
84883;SDS011;75145;49.188;8.122;2024-01-11T00:46:09;22.17;;;10.40;;
84883;SDS011;75145;49.188;8.122;2024-01-11T00:50:59;31.57;;;11.43;;
84883;SDS011;75145;49.188;8.122;2024-01-11T00:53:25;24.10;;;10.83;;
84883;SDS011;75145;49.188;8.122;2024-01-11T00:55:55;22.50;;;10.43;;
84883;SDS011;75145;49.188;8.122;2024-01-11T01:00:45;31.33;;;11.00;;
84883;SDS011;75145;49.188;8.122;2024-01-11T01:03:11;30.20;;;12.17;;
84883;SDS011;75145;49.188;8.122;2024-01-11T01:05:36;25.13;;;10.57;;
84883;SDS011;75145;49.188;8.122;2024-01-11T01:08:01;28.33;;;11.80;;
84883;SDS011;75145;49.188;8.122;2024-01-11T01:10:27;27.92;;;11.50;;
84883;SDS011;75145;49.188;8.122;2024-01-11T01:12:52;29.07;;;11.27;;
84883;SDS011;75145;49.188;8.122;2024-01-11T01:15:17;24.55;;;10.60;;
84883;SDS011;75145;49.188;8.122;2024-01-11T01:17:43;25.00;;;11.30;;
84883;SDS011;75145;49.188;8.122;2024-01-11T01:20:08;22.90;;;12.60;;
84883;SDS011;75145;49.188;8.122;2024-01-11T01:22:34;25.27;;;11.50;;
84883;SDS011;75145;49.188;8.122;2024-01-11T01:24:59;28.07;;;11.07;;
84883;SDS011;75145;49.188;8.122;2024-01-11T01:27:24;30.60;;;13.53;;
84883;SDS011;75145;49.188;8.122;2024-01-11T01:29:50;25.60;;;11.70;;
84883;SDS011;75145;49.188;8.122;2024-01-11T01:32:15;27.37;;;11.87;;
84883;SDS011;75145;49.188;8.122;2024-01-11T01:34:40;28.83;;;12.30;;
84883;SDS011;75145;49.188;8.122;2024-01-11T01:37:06;26.47;;;11.00;;
84883;SDS011;75145;49.188;8.122;2024-01-11T01:39:31;32.00;;;12.20;;
84883;SDS011;75145;49.188;8.122;2024-01-11T01:41:56;28.98;;;10.48;;
84883;SDS011;75145;49.188;8.122;2024-01-11T01:44:22;27.73;;;12.00;;
84883;SDS011;75145;49.188;8.122;2024-01-11T01:46:47;31.10;;;12.70;;
84883;SDS011;75145;49.188;8.122;2024-01-11T01:49:14;30.88;;;12.93;;
84883;SDS011;75145;49.188;8.122;2024-01-11T01:51:39;28.63;;;12.80;;
84883;SDS011;75145;49.188;8.122;2024-01-11T01:54:05;32.55;;;12.05;;
84883;SDS011;75145;49.188;8.122;2024-01-11T01:56:31;24.23;;;11.02;;
84883;SDS011;75145;49.188;8.122;2024-01-11T01:58:56;25.77;;;11.27;;
84883;SDS011;75145;49.188;8.122;2024-01-11T02:01:23;29.20;;;12.10;;
84883;SDS011;75145;49.188;8.122;2024-01-11T02:03:50;28.23;;;11.35;;
84883;SDS011;75145;49.188;8.122;2024-01-11T02:06:17;27.90;;;11.93;;
84883;SDS011;75145;49.188;8.122;2024-01-11T02:08:46;23.73;;;10.70;;
84883;SDS011;75145;49.188;8.122;2024-01-11T02:11:13;32.63;;;12.65;;
84883;SDS011;75145;49.188;8.122;2024-01-11T02:13:39;29.17;;;12.30;;
84883;SDS011;75145;49.188;8.122;2024-01-11T02:16:05;27.35;;;12.40;;
84883;SDS011;75145;49.188;8.122;2024-01-11T02:18:30;26.95;;;12.07;;
84883;SDS011;75145;49.188;8.122;2024-01-11T02:20:56;26.85;;;11.40;;
84883;SDS011;75145;49.188;8.122;2024-01-11T02:23:22;26.55;;;12.55;;
84883;SDS011;75145;49.188;8.122;2024-01-11T02:25:49;26.85;;;11.52;;
84883;SDS011;75145;49.188;8.122;2024-01-11T02:28:15;33.42;;;12.70;;
84883;SDS011;75145;49.188;8.122;2024-01-11T02:30:40;25.53;;;11.67;;
84883;SDS011;75145;49.188;8.122;2024-01-11T02:33:05;38.67;;;13.52;;
84883;SDS011;75145;49.188;8.122;2024-01-11T02:35:31;26.40;;;12.30;;
84883;SDS011;75145;49.188;8.122;2024-01-11T02:37:57;28.38;;;11.95;;
84883;SDS011;75145;49.188;8.122;2024-01-11T02:40:24;35.13;;;12.73;;
84883;SDS011;75145;49.188;8.122;2024-01-11T02:42:51;24.92;;;12.82;;
84883;SDS011;75145;49.188;8.122;2024-01-11T02:45:16;31.25;;;11.38;;
84883;SDS011;75145;49.188;8.122;2024-01-11T02:47:41;32.42;;;13.30;;
84883;SDS011;75145;49.188;8.122;2024-01-11T02:50:07;30.17;;;13.82;;
84883;SDS011;75145;49.188;8.122;2024-01-11T02:52:33;33.00;;;12.05;;
84883;SDS011;75145;49.188;8.122;2024-01-11T02:54:59;32.13;;;12.45;;
84883;SDS011;75145;49.188;8.122;2024-01-11T02:58:25;27.05;;;12.20;;
84883;SDS011;75145;49.188;8.122;2024-01-11T03:00:51;29.55;;;13.13;;
84883;SDS011;75145;49.188;8.122;2024-01-11T03:03:16;27.43;;;12.40;;
84883;SDS011;75145;49.188;8.122;2024-01-11T03:05:42;30.27;;;12.03;;
84883;SDS011;75145;49.188;8.122;2024-01-11T03:08:07;33.53;;;12.93;;
84883;SDS011;75145;49.188;8.122;2024-01-11T03:10:32;31.80;;;14.50;;
84883;SDS011;75145;49.188;8.122;2024-01-11T03:15:26;31.15;;;14.05;;
84883;SDS011;75145;49.188;8.122;2024-01-11T03:17:51;29.33;;;12.73;;
84883;SDS011;75145;49.188;8.122;2024-01-11T03:20:16;31.45;;;13.98;;
84883;SDS011;75145;49.188;8.122;2024-01-11T03:22:45;29.00;;;14.00;;
84883;SDS011;75145;49.188;8.122;2024-01-11T03:25:11;29.40;;;12.63;;
84883;SDS011;75145;49.188;8.122;2024-01-11T03:27:37;26.88;;;12.80;;
84883;SDS011;75145;49.188;8.122;2024-01-11T03:30:02;25.90;;;12.43;;
84883;SDS011;75145;49.188;8.122;2024-01-11T03:32:29;33.00;;;12.45;;
84883;SDS011;75145;49.188;8.122;2024-01-11T03:34:54;34.43;;;12.97;;
84883;SDS011;75145;49.188;8.122;2024-01-11T03:37:20;33.13;;;14.10;;
84883;SDS011;75145;49.188;8.122;2024-01-11T03:39:45;36.17;;;12.07;;
84883;SDS011;75145;49.188;8.122;2024-01-11T03:42:10;34.57;;;14.80;;
84883;SDS011;75145;49.188;8.122;2024-01-11T03:44:36;33.40;;;13.52;;
84883;SDS011;75145;49.188;8.122;2024-01-11T03:47:02;33.05;;;14.43;;
84883;SDS011;75145;49.188;8.122;2024-01-11T03:49:27;35.58;;;13.95;;
84883;SDS011;75145;49.188;8.122;2024-01-11T03:51:53;29.13;;;13.67;;
84883;SDS011;75145;49.188;8.122;2024-01-11T03:54:18;32.77;;;14.90;;
84883;SDS011;75145;49.188;8.122;2024-01-11T03:56:43;32.30;;;13.67;;
84883;SDS011;75145;49.188;8.122;2024-01-11T03:59:10;38.30;;;15.77;;
84883;SDS011;75145;49.188;8.122;2024-01-11T04:01:39;40.33;;;14.65;;
84883;SDS011;75145;49.188;8.122;2024-01-11T04:04:05;32.97;;;13.60;;
84883;SDS011;75145;49.188;8.122;2024-01-11T04:09:40;31.63;;;13.63;;
84883;SDS011;75145;49.188;8.122;2024-01-11T04:12:06;25.25;;;12.38;;
84883;SDS011;75145;49.188;8.122;2024-01-11T04:14:31;31.55;;;12.60;;
84883;SDS011;75145;49.188;8.122;2024-01-11T04:16:57;27.42;;;13.48;;
84883;SDS011;75145;49.188;8.122;2024-01-11T04:19:22;36.70;;;13.10;;
84883;SDS011;75145;49.188;8.122;2024-01-11T04:21:48;30.30;;;13.13;;
84883;SDS011;75145;49.188;8.122;2024-01-11T04:24:13;29.43;;;14.97;;
84883;SDS011;75145;49.188;8.122;2024-01-11T04:26:38;29.20;;;13.30;;
84883;SDS011;75145;49.188;8.122;2024-01-11T04:29:04;35.30;;;14.17;;
84883;SDS011;75145;49.188;8.122;2024-01-11T04:31:30;28.60;;;12.95;;
84883;SDS011;75145;49.188;8.122;2024-01-11T04:33:55;33.33;;;13.98;;
84883;SDS011;75145;49.188;8.122;2024-01-11T04:36:21;34.20;;;14.63;;
84883;SDS011;75145;49.188;8.122;2024-01-11T04:38:46;29.55;;;14.35;;
84883;SDS011;75145;49.188;8.122;2024-01-11T04:41:12;31.42;;;12.98;;
84883;SDS011;75145;49.188;8.122;2024-01-11T04:43:38;30.23;;;13.68;;
84883;SDS011;75145;49.188;8.122;2024-01-11T04:48:42;32.05;;;14.77;;
84883;SDS011;75145;49.188;8.122;2024-01-11T04:53:35;29.60;;;12.00;;
84883;SDS011;75145;49.188;8.122;2024-01-11T04:56:02;36.33;;;14.48;;
84883;SDS011;75145;49.188;8.122;2024-01-11T04:58:27;33.78;;;14.05;;
84883;SDS011;75145;49.188;8.122;2024-01-11T05:00:53;34.53;;;14.67;;
84883;SDS011;75145;49.188;8.122;2024-01-11T05:03:18;31.45;;;14.75;;
84883;SDS011;75145;49.188;8.122;2024-01-11T05:05:44;35.15;;;14.25;;
84883;SDS011;75145;49.188;8.122;2024-01-11T05:08:09;32.33;;;13.50;;
84883;SDS011;75145;49.188;8.122;2024-01-11T05:10:35;35.90;;;12.80;;
84883;SDS011;75145;49.188;8.122;2024-01-11T05:15:26;29.83;;;12.50;;
84883;SDS011;75145;49.188;8.122;2024-01-11T05:18:55;36.15;;;14.25;;
84883;SDS011;75145;49.188;8.122;2024-01-11T05:21:22;32.53;;;15.07;;
84883;SDS011;75145;49.188;8.122;2024-01-11T05:23:47;39.10;;;14.48;;
84883;SDS011;75145;49.188;8.122;2024-01-11T05:26:14;35.63;;;14.80;;
84883;SDS011;75145;49.188;8.122;2024-01-11T05:28:40;33.03;;;14.20;;
84883;SDS011;75145;49.188;8.122;2024-01-11T05:31:09;34.13;;;15.65;;
84883;SDS011;75145;49.188;8.122;2024-01-11T05:33:35;35.60;;;14.18;;
84883;SDS011;75145;49.188;8.122;2024-01-11T05:36:01;34.90;;;15.02;;
84883;SDS011;75145;49.188;8.122;2024-01-11T05:40:52;36.53;;;14.20;;
84883;SDS011;75145;49.188;8.122;2024-01-11T05:43:18;27.87;;;13.67;;
84883;SDS011;75145;49.188;8.122;2024-01-11T05:45:43;36.47;;;13.25;;
84883;SDS011;75145;49.188;8.122;2024-01-11T05:48:10;30.35;;;13.15;;
84883;SDS011;75145;49.188;8.122;2024-01-11T05:50:35;25.88;;;12.18;;
84883;SDS011;75145;49.188;8.122;2024-01-11T05:53:00;33.73;;;14.93;;
84883;SDS011;75145;49.188;8.122;2024-01-11T05:55:26;36.43;;;13.87;;
84883;SDS011;75145;49.188;8.122;2024-01-11T05:57:51;28.33;;;14.75;;
84883;SDS011;75145;49.188;8.122;2024-01-11T06:00:17;38.72;;;15.07;;
84883;SDS011;75145;49.188;8.122;2024-01-11T06:02:42;29.75;;;14.48;;
84883;SDS011;75145;49.188;8.122;2024-01-11T06:05:08;32.38;;;14.93;;
84883;SDS011;75145;49.188;8.122;2024-01-11T06:07:34;40.15;;;15.40;;
84883;SDS011;75145;49.188;8.122;2024-01-11T06:10:00;37.28;;;15.65;;
84883;SDS011;75145;49.188;8.122;2024-01-11T06:12:27;41.83;;;15.07;;
84883;SDS011;75145;49.188;8.122;2024-01-11T06:14:53;28.63;;;13.10;;
84883;SDS011;75145;49.188;8.122;2024-01-11T06:17:18;30.47;;;13.17;;
84883;SDS011;75145;49.188;8.122;2024-01-11T06:19:44;36.27;;;14.83;;
84883;SDS011;75145;49.188;8.122;2024-01-11T06:22:09;38.13;;;15.07;;
84883;SDS011;75145;49.188;8.122;2024-01-11T06:24:34;36.27;;;13.93;;
84883;SDS011;75145;49.188;8.122;2024-01-11T06:27:00;36.73;;;14.83;;
84883;SDS011;75145;49.188;8.122;2024-01-11T06:29:25;36.13;;;14.65;;
84883;SDS011;75145;49.188;8.122;2024-01-11T06:31:50;29.98;;;13.73;;
84883;SDS011;75145;49.188;8.122;2024-01-11T06:34:16;35.13;;;13.52;;
84883;SDS011;75145;49.188;8.122;2024-01-11T06:36:41;33.37;;;14.87;;
84883;SDS011;75145;49.188;8.122;2024-01-11T06:39:07;35.35;;;14.70;;
84883;SDS011;75145;49.188;8.122;2024-01-11T06:41:33;30.88;;;13.80;;
84883;SDS011;75145;49.188;8.122;2024-01-11T06:43:59;33.33;;;14.30;;
84883;SDS011;75145;49.188;8.122;2024-01-11T06:46:24;31.57;;;13.50;;
84883;SDS011;75145;49.188;8.122;2024-01-11T06:48:49;30.73;;;14.23;;
84883;SDS011;75145;49.188;8.122;2024-01-11T06:51:15;33.77;;;14.40;;
84883;SDS011;75145;49.188;8.122;2024-01-11T06:53:41;32.33;;;14.95;;
84883;SDS011;75145;49.188;8.122;2024-01-11T06:56:16;37.80;;;15.05;;
84883;SDS011;75145;49.188;8.122;2024-01-11T06:58:44;37.67;;;15.73;;
84883;SDS011;75145;49.188;8.122;2024-01-11T07:01:10;32.47;;;13.13;;
84883;SDS011;75145;49.188;8.122;2024-01-11T07:03:37;35.15;;;15.35;;
84883;SDS011;75145;49.188;8.122;2024-01-11T07:08:28;29.85;;;13.23;;
84883;SDS011;75145;49.188;8.122;2024-01-11T07:10:54;31.23;;;14.10;;
84883;SDS011;75145;49.188;8.122;2024-01-11T07:13:20;36.28;;;15.00;;
84883;SDS011;75145;49.188;8.122;2024-01-11T07:15:45;34.60;;;14.48;;
84883;SDS011;75145;49.188;8.122;2024-01-11T07:18:12;27.98;;;13.07;;
84883;SDS011;75145;49.188;8.122;2024-01-11T07:20:37;31.27;;;14.37;;
84883;SDS011;75145;49.188;8.122;2024-01-11T07:23:03;30.65;;;14.40;;
84883;SDS011;75145;49.188;8.122;2024-01-11T07:25:29;35.20;;;14.38;;
84883;SDS011;75145;49.188;8.122;2024-01-11T07:27:54;31.40;;;14.13;;
84883;SDS011;75145;49.188;8.122;2024-01-11T07:30:19;39.53;;;14.90;;
84883;SDS011;75145;49.188;8.122;2024-01-11T07:32:45;31.83;;;14.82;;
84883;SDS011;75145;49.188;8.122;2024-01-11T07:35:10;32.93;;;15.20;;
84883;SDS011;75145;49.188;8.122;2024-01-11T07:37:37;27.05;;;14.35;;
84883;SDS011;75145;49.188;8.122;2024-01-11T07:40:03;39.83;;;15.85;;
84883;SDS011;75145;49.188;8.122;2024-01-11T07:42:29;38.80;;;14.98;;
84883;SDS011;75145;49.188;8.122;2024-01-11T07:44:54;40.10;;;15.73;;
84883;SDS011;75145;49.188;8.122;2024-01-11T07:47:20;38.05;;;16.23;;
84883;SDS011;75145;49.188;8.122;2024-01-11T07:49:45;37.95;;;16.33;;
84883;SDS011;75145;49.188;8.122;2024-01-11T07:52:11;36.17;;;15.95;;
84883;SDS011;75145;49.188;8.122;2024-01-11T07:54:36;36.15;;;16.10;;
84883;SDS011;75145;49.188;8.122;2024-01-11T07:57:02;37.55;;;16.60;;
84883;SDS011;75145;49.188;8.122;2024-01-11T08:01:57;34.95;;;15.13;;
84883;SDS011;75145;49.188;8.122;2024-01-11T08:06:48;31.40;;;14.67;;
84883;SDS011;75145;49.188;8.122;2024-01-11T08:11:38;39.03;;;15.10;;
84883;SDS011;75145;49.188;8.122;2024-01-11T08:14:06;38.90;;;16.92;;
84883;SDS011;75145;49.188;8.122;2024-01-11T08:16:31;36.47;;;15.53;;
84883;SDS011;75145;49.188;8.122;2024-01-11T08:21:22;36.13;;;16.10;;
84883;SDS011;75145;49.188;8.122;2024-01-11T08:23:47;34.20;;;16.67;;
84883;SDS011;75145;49.188;8.122;2024-01-11T08:26:16;37.05;;;15.90;;
84883;SDS011;75145;49.188;8.122;2024-01-11T08:28:44;34.05;;;17.02;;
84883;SDS011;75145;49.188;8.122;2024-01-11T08:31:09;42.92;;;18.00;;
84883;SDS011;75145;49.188;8.122;2024-01-11T08:33:35;39.28;;;16.05;;
84883;SDS011;75145;49.188;8.122;2024-01-11T08:36:02;43.42;;;18.05;;
84883;SDS011;75145;49.188;8.122;2024-01-11T08:38:29;34.90;;;17.27;;
84883;SDS011;75145;49.188;8.122;2024-01-11T08:40:54;40.05;;;16.83;;
84883;SDS011;75145;49.188;8.122;2024-01-11T08:43:20;36.72;;;17.50;;
84883;SDS011;75145;49.188;8.122;2024-01-11T08:45:45;36.45;;;17.05;;
84883;SDS011;75145;49.188;8.122;2024-01-11T08:48:12;40.35;;;17.63;;
84883;SDS011;75145;49.188;8.122;2024-01-11T08:50:37;39.97;;;18.50;;
84883;SDS011;75145;49.188;8.122;2024-01-11T08:53:03;42.88;;;18.10;;
84883;SDS011;75145;49.188;8.122;2024-01-11T08:55:28;36.78;;;17.92;;
84883;SDS011;75145;49.188;8.122;2024-01-11T08:57:54;39.55;;;18.30;;
84883;SDS011;75145;49.188;8.122;2024-01-11T09:00:19;39.28;;;19.52;;
84883;SDS011;75145;49.188;8.122;2024-01-11T09:02:45;38.22;;;19.05;;
84883;SDS011;75145;49.188;8.122;2024-01-11T09:05:11;40.55;;;18.25;;
84883;SDS011;75145;49.188;8.122;2024-01-11T09:07:39;42.33;;;19.08;;
84883;SDS011;75145;49.188;8.122;2024-01-11T09:10:04;39.08;;;17.60;;
84883;SDS011;75145;49.188;8.122;2024-01-11T09:12:30;37.92;;;19.15;;
84883;SDS011;75145;49.188;8.122;2024-01-11T09:14:56;42.47;;;19.70;;
84883;SDS011;75145;49.188;8.122;2024-01-11T09:17:21;40.27;;;19.03;;
84883;SDS011;75145;49.188;8.122;2024-01-11T09:19:46;37.30;;;19.98;;
84883;SDS011;75145;49.188;8.122;2024-01-11T09:22:12;38.87;;;19.10;;
84883;SDS011;75145;49.188;8.122;2024-01-11T09:24:37;38.27;;;18.13;;
84883;SDS011;75145;49.188;8.122;2024-01-11T09:27:03;41.15;;;19.80;;
84883;SDS011;75145;49.188;8.122;2024-01-11T09:29:29;40.13;;;19.42;;
84883;SDS011;75145;49.188;8.122;2024-01-11T09:31:54;34.63;;;17.77;;
84883;SDS011;75145;49.188;8.122;2024-01-11T09:34:20;38.27;;;19.63;;
84883;SDS011;75145;49.188;8.122;2024-01-11T09:36:45;37.73;;;19.27;;
84883;SDS011;75145;49.188;8.122;2024-01-11T09:39:10;36.43;;;18.73;;
84883;SDS011;75145;49.188;8.122;2024-01-11T09:41:38;35.08;;;18.60;;
84883;SDS011;75145;49.188;8.122;2024-01-11T09:44:08;39.15;;;20.38;;
84883;SDS011;75145;49.188;8.122;2024-01-11T09:46:34;39.67;;;20.05;;
84883;SDS011;75145;49.188;8.122;2024-01-11T09:49:00;40.80;;;19.13;;
84883;SDS011;75145;49.188;8.122;2024-01-11T09:51:28;35.10;;;17.48;;
84883;SDS011;75145;49.188;8.122;2024-01-11T09:53:54;38.92;;;19.27;;
84883;SDS011;75145;49.188;8.122;2024-01-11T09:56:21;35.55;;;17.85;;
84883;SDS011;75145;49.188;8.122;2024-01-11T09:58:47;37.63;;;18.95;;
84883;SDS011;75145;49.188;8.122;2024-01-11T10:01:16;39.83;;;18.85;;
84883;SDS011;75145;49.188;8.122;2024-01-11T10:03:42;36.40;;;18.15;;
84883;SDS011;75145;49.188;8.122;2024-01-11T10:06:08;35.38;;;17.73;;
84883;SDS011;75145;49.188;8.122;2024-01-11T10:08:35;35.92;;;19.33;;
84883;SDS011;75145;49.188;8.122;2024-01-11T10:11:01;36.35;;;18.63;;
84883;SDS011;75145;49.188;8.122;2024-01-11T10:13:28;35.75;;;19.70;;
84883;SDS011;75145;49.188;8.122;2024-01-11T10:16:07;37.55;;;19.88;;
84883;SDS011;75145;49.188;8.122;2024-01-11T10:18:34;36.35;;;19.70;;
84883;SDS011;75145;49.188;8.122;2024-01-11T10:21:01;40.17;;;20.65;;
84883;SDS011;75145;49.188;8.122;2024-01-11T10:23:26;38.85;;;20.40;;
84883;SDS011;75145;49.188;8.122;2024-01-11T10:25:54;38.38;;;19.05;;
84883;SDS011;75145;49.188;8.122;2024-01-11T10:28:21;34.90;;;19.60;;
84883;SDS011;75145;49.188;8.122;2024-01-11T10:30:46;33.70;;;18.80;;
84883;SDS011;75145;49.188;8.122;2024-01-11T10:33:12;36.60;;;18.95;;
84883;SDS011;75145;49.188;8.122;2024-01-11T10:35:37;38.55;;;20.65;;
84883;SDS011;75145;49.188;8.122;2024-01-11T10:38:04;38.22;;;20.48;;
84883;SDS011;75145;49.188;8.122;2024-01-11T10:40:34;35.78;;;18.85;;
84883;SDS011;75145;49.188;8.122;2024-01-11T10:43:01;36.55;;;18.27;;
84883;SDS011;75145;49.188;8.122;2024-01-11T10:45:30;35.67;;;19.20;;
84883;SDS011;75145;49.188;8.122;2024-01-11T10:48:03;36.65;;;18.60;;
84883;SDS011;75145;49.188;8.122;2024-01-11T10:50:35;31.95;;;18.13;;
84883;SDS011;75145;49.188;8.122;2024-01-11T10:55:37;37.05;;;18.65;;
84883;SDS011;75145;49.188;8.122;2024-01-11T10:58:05;34.25;;;18.73;;
84883;SDS011;75145;49.188;8.122;2024-01-11T11:00:32;32.47;;;18.50;;
84883;SDS011;75145;49.188;8.122;2024-01-11T11:03:00;35.38;;;18.23;;
84883;SDS011;75145;49.188;8.122;2024-01-11T11:05:28;32.97;;;18.30;;
84883;SDS011;75145;49.188;8.122;2024-01-11T11:07:56;39.22;;;18.40;;
84883;SDS011;75145;49.188;8.122;2024-01-11T11:10:24;35.22;;;19.33;;
84883;SDS011;75145;49.188;8.122;2024-01-11T11:12:51;38.10;;;19.42;;
84883;SDS011;75145;49.188;8.122;2024-01-11T11:15:18;33.70;;;18.17;;
84883;SDS011;75145;49.188;8.122;2024-01-11T11:17:45;38.08;;;20.63;;
84883;SDS011;75145;49.188;8.122;2024-01-11T11:20:11;36.42;;;18.48;;
84883;SDS011;75145;49.188;8.122;2024-01-11T11:22:37;37.10;;;19.35;;
84883;SDS011;75145;49.188;8.122;2024-01-11T11:25:10;34.05;;;17.77;;
84883;SDS011;75145;49.188;8.122;2024-01-11T11:27:48;36.83;;;20.10;;
84883;SDS011;75145;49.188;8.122;2024-01-11T11:30:14;36.25;;;20.23;;
84883;SDS011;75145;49.188;8.122;2024-01-11T11:32:42;35.80;;;18.63;;
84883;SDS011;75145;49.188;8.122;2024-01-11T11:35:08;33.03;;;18.00;;
84883;SDS011;75145;49.188;8.122;2024-01-11T11:37:36;30.02;;;16.50;;
84883;SDS011;75145;49.188;8.122;2024-01-11T11:40:03;35.78;;;19.45;;
84883;SDS011;75145;49.188;8.122;2024-01-11T11:42:35;35.55;;;19.45;;
84883;SDS011;75145;49.188;8.122;2024-01-11T11:45:00;32.10;;;18.33;;
84883;SDS011;75145;49.188;8.122;2024-01-11T11:47:32;34.30;;;17.77;;
84883;SDS011;75145;49.188;8.122;2024-01-11T11:50:06;32.05;;;18.38;;
84883;SDS011;75145;49.188;8.122;2024-01-11T11:52:34;37.63;;;19.23;;
84883;SDS011;75145;49.188;8.122;2024-01-11T11:55:01;38.25;;;19.55;;
84883;SDS011;75145;49.188;8.122;2024-01-11T11:57:31;35.50;;;18.05;;
84883;SDS011;75145;49.188;8.122;2024-01-11T11:59:57;34.85;;;19.08;;
84883;SDS011;75145;49.188;8.122;2024-01-11T12:02:24;33.90;;;18.95;;
84883;SDS011;75145;49.188;8.122;2024-01-11T12:04:51;37.28;;;20.10;;
84883;SDS011;75145;49.188;8.122;2024-01-11T12:07:17;37.58;;;18.70;;
84883;SDS011;75145;49.188;8.122;2024-01-11T12:09:43;35.50;;;18.67;;
84883;SDS011;75145;49.188;8.122;2024-01-11T12:12:08;35.63;;;18.77;;
84883;SDS011;75145;49.188;8.122;2024-01-11T12:14:34;32.40;;;18.15;;
84883;SDS011;75145;49.188;8.122;2024-01-11T12:17:00;35.40;;;17.95;;
84883;SDS011;75145;49.188;8.122;2024-01-11T12:19:28;39.13;;;19.20;;
84883;SDS011;75145;49.188;8.122;2024-01-11T12:21:53;36.20;;;19.63;;
84883;SDS011;75145;49.188;8.122;2024-01-11T12:24:19;39.03;;;18.52;;
84883;SDS011;75145;49.188;8.122;2024-01-11T12:26:46;32.13;;;17.77;;
84883;SDS011;75145;49.188;8.122;2024-01-11T12:29:13;31.73;;;17.17;;
84883;SDS011;75145;49.188;8.122;2024-01-11T12:31:39;34.50;;;18.35;;
84883;SDS011;75145;49.188;8.122;2024-01-11T12:34:04;35.07;;;17.77;;
84883;SDS011;75145;49.188;8.122;2024-01-11T12:36:30;35.60;;;18.40;;
84883;SDS011;75145;49.188;8.122;2024-01-11T12:38:57;33.80;;;18.88;;
84883;SDS011;75145;49.188;8.122;2024-01-11T12:41:23;33.65;;;19.85;;
84883;SDS011;75145;49.188;8.122;2024-01-11T12:43:49;36.88;;;18.40;;
84883;SDS011;75145;49.188;8.122;2024-01-11T12:46:14;32.92;;;17.67;;
84883;SDS011;75145;49.188;8.122;2024-01-11T12:48:41;36.25;;;19.17;;
84883;SDS011;75145;49.188;8.122;2024-01-11T12:51:07;37.47;;;19.27;;
84883;SDS011;75145;49.188;8.122;2024-01-11T12:53:32;33.45;;;19.45;;
84883;SDS011;75145;49.188;8.122;2024-01-11T12:56:04;39.63;;;20.20;;
84883;SDS011;75145;49.188;8.122;2024-01-11T12:58:35;34.15;;;18.13;;
84883;SDS011;75145;49.188;8.122;2024-01-11T13:01:04;35.30;;;18.85;;
84883;SDS011;75145;49.188;8.122;2024-01-11T13:03:32;37.97;;;19.27;;
84883;SDS011;75145;49.188;8.122;2024-01-11T13:05:58;32.05;;;17.88;;
84883;SDS011;75145;49.188;8.122;2024-01-11T13:08:24;35.30;;;18.92;;
84883;SDS011;75145;49.188;8.122;2024-01-11T13:10:49;34.72;;;18.98;;
84883;SDS011;75145;49.188;8.122;2024-01-11T13:13:15;37.80;;;19.40;;
84883;SDS011;75145;49.188;8.122;2024-01-11T13:15:40;28.95;;;17.60;;
84883;SDS011;75145;49.188;8.122;2024-01-11T13:18:06;33.78;;;19.15;;
84883;SDS011;75145;49.188;8.122;2024-01-11T13:20:31;36.25;;;18.63;;
84883;SDS011;75145;49.188;8.122;2024-01-11T13:23:16;31.90;;;18.20;;
84883;SDS011;75145;49.188;8.122;2024-01-11T13:25:45;31.25;;;17.20;;
84883;SDS011;75145;49.188;8.122;2024-01-11T13:28:11;40.95;;;19.73;;
84883;SDS011;75145;49.188;8.122;2024-01-11T13:30:40;34.70;;;17.90;;
84883;SDS011;75145;49.188;8.122;2024-01-11T13:33:07;33.50;;;17.92;;
84883;SDS011;75145;49.188;8.122;2024-01-11T13:35:33;34.22;;;18.17;;
84883;SDS011;75145;49.188;8.122;2024-01-11T13:38:03;36.40;;;19.02;;
84883;SDS011;75145;49.188;8.122;2024-01-11T13:40:29;35.03;;;18.52;;
84883;SDS011;75145;49.188;8.122;2024-01-11T13:42:55;38.00;;;18.85;;
84883;SDS011;75145;49.188;8.122;2024-01-11T13:45:24;35.22;;;19.70;;
84883;SDS011;75145;49.188;8.122;2024-01-11T13:47:53;31.95;;;18.40;;
84883;SDS011;75145;49.188;8.122;2024-01-11T13:50:19;38.72;;;19.35;;
84883;SDS011;75145;49.188;8.122;2024-01-11T13:52:45;35.20;;;19.35;;
84883;SDS011;75145;49.188;8.122;2024-01-11T13:55:11;30.90;;;17.73;;
84883;SDS011;75145;49.188;8.122;2024-01-11T13:57:37;37.72;;;19.42;;
84883;SDS011;75145;49.188;8.122;2024-01-11T14:00:03;35.42;;;17.90;;
84883;SDS011;75145;49.188;8.122;2024-01-11T14:02:32;32.70;;;18.02;;
84883;SDS011;75145;49.188;8.122;2024-01-11T14:04:58;33.72;;;18.17;;
84883;SDS011;75145;49.188;8.122;2024-01-11T14:07:27;31.30;;;16.20;;
84883;SDS011;75145;49.188;8.122;2024-01-11T14:09:52;35.55;;;18.95;;
84883;SDS011;75145;49.188;8.122;2024-01-11T14:12:17;36.90;;;17.48;;
84883;SDS011;75145;49.188;8.122;2024-01-11T14:14:43;32.30;;;16.13;;
84883;SDS011;75145;49.188;8.122;2024-01-11T14:17:08;33.05;;;17.58;;
84883;SDS011;75145;49.188;8.122;2024-01-11T14:19:37;33.08;;;16.27;;
84883;SDS011;75145;49.188;8.122;2024-01-11T14:22:02;33.88;;;17.55;;
84883;SDS011;75145;49.188;8.122;2024-01-11T14:24:27;31.08;;;16.40;;
84883;SDS011;75145;49.188;8.122;2024-01-11T14:26:53;32.97;;;17.40;;
84883;SDS011;75145;49.188;8.122;2024-01-11T14:29:19;32.15;;;16.10;;
84883;SDS011;75145;49.188;8.122;2024-01-11T14:31:44;29.50;;;16.42;;
84883;SDS011;75145;49.188;8.122;2024-01-11T14:34:10;34.28;;;17.80;;
84883;SDS011;75145;49.188;8.122;2024-01-11T14:36:35;34.28;;;17.17;;
84883;SDS011;75145;49.188;8.122;2024-01-11T14:39:01;35.88;;;17.00;;
84883;SDS011;75145;49.188;8.122;2024-01-11T14:41:29;34.50;;;17.20;;
84883;SDS011;75145;49.188;8.122;2024-01-11T14:43:57;33.95;;;16.63;;
84883;SDS011;75145;49.188;8.122;2024-01-11T14:46:25;33.90;;;16.23;;
84883;SDS011;75145;49.188;8.122;2024-01-11T14:48:50;35.95;;;18.33;;
84883;SDS011;75145;49.188;8.122;2024-01-11T14:51:16;35.28;;;17.10;;
84883;SDS011;75145;49.188;8.122;2024-01-11T14:53:41;31.50;;;17.57;;